Terminal Aerodrome Forecast
Issued by NWS

Home | Current Version | Previous Version | Text Only | Print | Product List | Glossary On
Versions: 1 2 3 4 5 6 7 8 9 10 11 12 13 14 15 16
731
FTUS42 KTBW 231129
TAFPGD
TAF
KPGD 231129Z 2312/2412 VRB03KT 6SM BR SCT003 BKN120
      TEMPO 2312/2314 2SM BR BKN003
     FM231400 33008KT P6SM SCT020 BKN120
     FM231800 36008KT P6SM SCT035 SCT120=

USA.gov is the U.S. government's official web portal to all federal, state and local government web resources and services.